createdAt,value
2023-05-14T00:00:53.530Z,95402.47
2023-05-14T00:03:20.908Z,95403.28
2023-05-14T00:05:48.754Z,95388.69
2023-05-14T00:08:15.930Z,95401.66
2023-05-14T00:10:43.108Z,95407.75
2023-05-14T00:13:10.282Z,95397.44
2023-05-14T00:15:38.821Z,95396.63
2023-05-14T00:18:06.029Z,95397.09
2023-05-14T00:20:33.468Z,95392.59
2023-05-14T00:23:00.600Z,95389.19
2023-05-14T00:25:28.313Z,95390.69
2023-05-14T00:27:55.468Z,95387.56
2023-05-14T00:30:22.974Z,95381.72
2023-05-14T00:32:51.838Z,95381.94
2023-05-14T00:35:19.087Z,95370.59
2023-05-14T00:37:46.208Z,95371.06
2023-05-14T00:40:13.626Z,95367.63
2023-05-14T00:42:40.713Z,95367.03
2023-05-14T00:45:08.829Z,95367.84
2023-05-14T00:47:37.205Z,95355.69
2023-05-14T00:50:07.717Z,95356.69
2023-05-14T00:52:34.987Z,95361.41
2023-05-14T00:55:06.178Z,95351.66
2023-05-14T00:57:33.775Z,95355.88
2023-05-14T01:00:01.541Z,95350.41
2023-05-14T01:02:28.761Z,95344.31
2023-05-14T01:04:56.946Z,95341.56
2023-05-14T01:07:36.106Z,95344.19
2023-05-14T01:10:11.921Z,95347.88
2023-05-14T01:12:48.085Z,95338.13
2023-05-14T01:15:21.122Z,95341.31
2023-05-14T01:17:54.008Z,95339.50
2023-05-14T01:20:22.412Z,95340.31
2023-05-14T01:22:51.142Z,95337.03
2023-05-14T01:25:18.641Z,95345.28
2023-05-14T01:27:53.326Z,95337.19
2023-05-14T01:30:28.566Z,95336.63
2023-05-14T01:33:00.722Z,95341.38
2023-05-14T01:35:29.766Z,95340.34
2023-05-14T01:38:02.095Z,95337.38
2023-05-14T01:40:33.183Z,95335.78
2023-05-14T01:43:01.127Z,95336.00
2023-05-14T01:45:28.319Z,95341.38
2023-05-14T01:47:55.434Z,95338.81
2023-05-14T01:50:22.974Z,95326.88
2023-05-14T01:52:50.262Z,95332.94
2023-05-14T01:55:19.047Z,95331.97
2023-05-14T01:57:46.216Z,95328.59
2023-05-14T02:00:15.097Z,95338.88
2023-05-14T02:02:42.496Z,95334.31
2023-05-14T02:05:11.361Z,95324.22
2023-05-14T02:07:38.533Z,95330.13
2023-05-14T02:10:07.416Z,95333.97
2023-05-14T02:12:36.333Z,95330.22
2023-05-14T02:15:04.259Z,95334.03
2023-05-14T02:17:31.655Z,95335.81
2023-05-14T02:19:58.959Z,95329.81
2023-05-14T02:22:26.126Z,95333.91
2023-05-14T02:24:53.262Z,95327.19
2023-05-14T02:27:20.384Z,95335.75
2023-05-14T02:29:49.034Z,95336.31
2023-05-14T02:32:16.191Z,95335.38
2023-05-14T02:34:43.393Z,95328.31
2023-05-14T02:37:10.523Z,95338.06
2023-05-14T02:39:37.623Z,95328.84
2023-05-14T02:42:05.369Z,95326.88
2023-05-14T02:44:32.496Z,95322.13
2023-05-14T02:47:01.205Z,95322.44
2023-05-14T02:49:28.488Z,95324.31
2023-05-14T02:51:55.603Z,95322.78
2023-05-14T02:54:22.769Z,95317.97
2023-05-14T02:56:49.982Z,95315.72
2023-05-14T02:59:17.105Z,95321.25
2023-05-14T03:01:44.698Z,95317.19
2023-05-14T03:04:13.830Z,95308.59
2023-05-14T03:06:40.973Z,95305.94
2023-05-14T03:09:08.115Z,95306.28
2023-05-14T03:11:35.657Z,95313.56
2023-05-14T03:14:02.742Z,95302.09
2023-05-14T03:16:29.893Z,95306.13
2023-05-14T03:18:57.157Z,95304.72
2023-05-14T03:21:25.925Z,95304.94
2023-05-14T03:23:53.368Z,95311.47
2023-05-14T03:26:20.559Z,95314.63
2023-05-14T03:28:47.630Z,95315.09
2023-05-14T03:31:14.812Z,95315.91
2023-05-14T03:33:42.294Z,95317.34
2023-05-14T03:36:09.773Z,95314.88
2023-05-14T03:38:38.470Z,95312.19
2023-05-14T03:41:05.503Z,95303.91
2023-05-14T03:43:32.557Z,95308.06
2023-05-14T03:45:59.626Z,95312.78
2023-05-14T03:48:26.986Z,95310.31
2023-05-14T03:50:54.244Z,95306.88
2023-05-14T03:53:21.334Z,95317.44
2023-05-14T03:55:49.870Z,95315.13
2023-05-14T03:58:17.028Z,95318.28
2023-05-14T04:00:44.389Z,95302.91
2023-05-14T04:03:11.656Z,95308.38
2023-05-14T04:05:39.033Z,95308.53
2023-05-14T04:08:06.400Z,95310.53
2023-05-14T04:10:33.724Z,95306.19
2023-05-14T04:13:02.264Z,95302.44
2023-05-14T04:15:29.393Z,95302.09
2023-05-14T04:17:56.517Z,95302.44
2023-05-14T04:20:23.824Z,95300.03
2023-05-14T04:22:51.082Z,95304.72
2023-05-14T04:25:18.559Z,95306.50
2023-05-14T04:27:45.807Z,95310.38
2023-05-14T04:30:14.997Z,95306.78
2023-05-14T04:32:42.092Z,95307.25
2023-05-14T04:35:09.784Z,95315.09
2023-05-14T04:37:36.965Z,95307.09
2023-05-14T04:40:05.094Z,95307.19
2023-05-14T04:42:32.121Z,95310.44
2023-05-14T04:44:59.366Z,95310.84
2023-05-14T04:47:28.118Z,95315.38
2023-05-14T04:49:55.199Z,95320.28
2023-05-14T04:52:22.298Z,95322.69
2023-05-14T04:54:49.435Z,95322.44
2023-05-14T04:57:17.039Z,95317.63
2023-05-14T04:59:44.141Z,95317.72
2023-05-14T05:02:11.463Z,95318.28
2023-05-14T05:04:40.067Z,95317.34
2023-05-14T05:07:07.384Z,95312.88
2023-05-14T05:09:34.572Z,95318.81
2023-05-14T05:12:01.846Z,95319.44
2023-05-14T05:14:28.966Z,95318.78
2023-05-14T05:16:56.142Z,95325.34
2023-05-14T05:19:35.917Z,95327.53
2023-05-14T05:22:11.578Z,95324.50
2023-05-14T05:24:38.742Z,95321.41
2023-05-14T05:27:06.253Z,95323.28
2023-05-14T05:29:33.426Z,95325.19
2023-05-14T05:32:00.797Z,95325.25
2023-05-14T05:34:28.215Z,95330.66
2023-05-14T05:36:55.362Z,95328.03
2023-05-14T05:39:24.011Z,95329.25
2023-05-14T05:41:51.549Z,95325.97
2023-05-14T05:44:18.723Z,95333.66
2023-05-14T05:46:45.883Z,95329.97
2023-05-14T05:49:13.008Z,95318.97
2023-05-14T05:51:40.106Z,95334.91
2023-05-14T05:54:07.182Z,95331.81
2023-05-14T05:56:35.725Z,95323.81
2023-05-14T05:59:02.783Z,95331.97
2023-05-14T06:01:29.924Z,95329.31
2023-05-14T06:03:57.467Z,95329.13
2023-05-14T06:06:24.686Z,95331.56
2023-05-14T06:08:51.927Z,95333.19
2023-05-14T06:11:18.989Z,95334.91
2023-05-14T06:13:47.521Z,95340.06
2023-05-14T06:16:14.616Z,95334.69
2023-05-14T06:18:41.867Z,95335.19
2023-05-14T06:21:09.026Z,95330.47
2023-05-14T06:23:36.346Z,95328.16
2023-05-14T06:26:03.619Z,95335.72
2023-05-14T06:28:30.796Z,95333.16
2023-05-14T06:30:59.445Z,95336.53
2023-05-14T06:33:26.585Z,95335.56
2023-05-14T06:35:53.724Z,95333.09
2023-05-14T06:38:20.882Z,95334.22
2023-05-14T06:40:48.046Z,95334.97
2023-05-14T06:43:15.203Z,95334.31
2023-05-14T06:45:42.304Z,95340.31
2023-05-14T06:48:10.923Z,95337.50
2023-05-14T06:50:38.164Z,95344.56
2023-05-14T06:53:05.345Z,95344.00
2023-05-14T06:55:32.554Z,95342.84
2023-05-14T06:57:59.642Z,95344.19
2023-05-14T07:00:27.087Z,95338.97
2023-05-14T07:02:54.472Z,95347.13
2023-05-14T07:05:23.215Z,95335.84
2023-05-14T07:07:50.322Z,95346.22
2023-05-14T07:10:17.402Z,95343.88
2023-05-14T07:12:44.599Z,95343.56
2023-05-14T07:15:12.099Z,95348.00
2023-05-14T07:17:39.236Z,95345.22
2023-05-14T07:20:07.868Z,95339.09
2023-05-14T07:22:36.348Z,95340.25
2023-05-14T07:25:03.602Z,95336.22
2023-05-14T07:27:30.725Z,95337.38
2023-05-14T07:29:57.844Z,95337.06
2023-05-14T07:32:25.134Z,95338.56
2023-05-14T07:34:52.434Z,95332.44
2023-05-14T07:37:20.285Z,95339.81
2023-05-14T07:39:50.747Z,95329.72
2023-05-14T07:42:31.897Z,95323.94
2023-05-14T07:45:02.059Z,95324.13
2023-05-14T07:47:29.747Z,95327.72
2023-05-14T07:49:57.460Z,95326.63
2023-05-14T07:52:25.112Z,95325.53
2023-05-14T07:54:53.875Z,95330.13
2023-05-14T07:57:21.123Z,95328.09
2023-05-14T07:59:49.872Z,95330.28
2023-05-14T08:02:17.544Z,95323.50
2023-05-14T08:04:45.540Z,95323.59
2023-05-14T08:07:12.588Z,95329.44
2023-05-14T08:09:39.741Z,95331.50
2023-05-14T08:12:08.914Z,95331.03
2023-05-14T08:14:36.166Z,95323.13
2023-05-14T08:17:03.792Z,95320.53
2023-05-14T08:19:31.206Z,95321.88
2023-05-14T08:21:58.318Z,95320.41
2023-05-14T08:24:25.594Z,95321.84
2023-05-14T08:26:52.765Z,95312.84
2023-05-14T08:29:21.326Z,95309.50
2023-05-14T08:31:49.585Z,95314.53
2023-05-14T08:34:16.978Z,95308.81
2023-05-14T08:36:44.068Z,95303.19
2023-05-14T08:39:11.455Z,95311.25
2023-05-14T08:41:40.525Z,95305.88
2023-05-14T08:44:12.628Z,95296.84
2023-05-14T08:46:42.130Z,95296.09
2023-05-14T08:49:29.212Z,95289.25
2023-05-14T08:51:56.685Z,95282.13
2023-05-14T08:54:24.045Z,95289.91
2023-05-14T08:56:52.337Z,95294.69
2023-05-14T08:59:19.854Z,95293.88
2023-05-14T09:01:51.850Z,95287.53
2023-05-14T09:04:21.661Z,95289.84
2023-05-14T09:06:50.444Z,95295.47
2023-05-14T09:09:17.767Z,95290.44
2023-05-14T09:11:47.375Z,95280.59
2023-05-14T09:14:14.468Z,95276.09
2023-05-14T09:16:45.000Z,95275.56
2023-05-14T09:19:15.086Z,95270.50
2023-05-14T09:21:45.325Z,95273.16
2023-05-14T09:24:19.924Z,95279.00
2023-05-14T09:26:51.368Z,95275.81
2023-05-14T09:29:18.847Z,95271.81
2023-05-14T09:31:46.140Z,95272.59
2023-05-14T09:34:24.728Z,95267.56
2023-05-14T09:36:57.133Z,95266.25
2023-05-14T09:39:25.291Z,95266.78
2023-05-14T09:41:53.042Z,95259.56
2023-05-14T09:44:20.872Z,95261.69
2023-05-14T09:46:48.858Z,95261.75
2023-05-14T09:49:17.842Z,95269.97
2023-05-14T09:51:45.053Z,95267.81
2023-05-14T09:54:12.312Z,95269.69
2023-05-14T09:56:39.648Z,95271.03
2023-05-14T09:59:06.799Z,95256.66
2023-05-14T10:01:34.562Z,95262.00
2023-05-14T10:04:03.583Z,95266.50
2023-05-14T10:06:36.952Z,95259.59
2023-05-14T10:09:07.464Z,95265.44
2023-05-14T10:11:38.432Z,95260.38
2023-05-14T10:14:11.943Z,95253.44
2023-05-14T10:16:45.871Z,95255.56
2023-05-14T10:19:15.382Z,95261.13
2023-05-14T10:21:48.359Z,95265.44
2023-05-14T10:24:17.623Z,95261.47
2023-05-14T10:26:45.902Z,95254.00
2023-05-14T10:29:13.460Z,95260.91
2023-05-14T10:31:49.331Z,95267.84
2023-05-14T10:34:33.953Z,95259.31
2023-05-14T10:37:04.415Z,95256.13
2023-05-14T10:39:41.785Z,95259.31
2023-05-14T10:42:11.465Z,95260.94
2023-05-14T10:44:45.362Z,95253.19
2023-05-14T10:47:12.550Z,95252.38
2023-05-14T10:49:43.603Z,95249.16
2023-05-14T10:52:12.814Z,95248.66
2023-05-14T10:54:39.991Z,95248.91
2023-05-14T10:57:11.881Z,95241.16
2023-05-14T10:59:42.546Z,95239.41
2023-05-14T11:02:21.559Z,95233.56
2023-05-14T11:05:07.365Z,95241.91
2023-05-14T11:07:37.751Z,95235.63
2023-05-14T11:10:07.161Z,95230.81
2023-05-14T11:12:35.675Z,95235.88
2023-05-14T11:15:05.823Z,95246.50
2023-05-14T11:17:35.227Z,95233.69
2023-05-14T11:20:03.607Z,95223.28
2023-05-14T11:22:30.687Z,95227.06
2023-05-14T11:24:59.305Z,95224.59
2023-05-14T11:27:26.604Z,95221.44
2023-05-14T11:29:53.671Z,95214.81
2023-05-14T11:32:20.894Z,95211.88
2023-05-14T11:34:48.048Z,95217.78
2023-05-14T11:37:16.889Z,95222.84
2023-05-14T11:39:49.066Z,95222.53
2023-05-14T11:42:18.888Z,95221.75
2023-05-14T11:44:47.870Z,95220.41
2023-05-14T11:47:15.911Z,95219.38
2023-05-14T11:50:00.316Z,95218.84
2023-05-14T11:52:41.375Z,95219.41
2023-05-14T11:55:11.926Z,95216.75
2023-05-14T11:57:41.034Z,95215.69
2023-05-14T12:00:10.411Z,95217.78
2023-05-14T12:02:38.091Z,95212.72
2023-05-14T12:05:06.683Z,95210.06
2023-05-14T12:07:33.962Z,95204.00
2023-05-14T12:10:04.819Z,95203.22
2023-05-14T12:12:36.358Z,95200.53
2023-05-14T12:15:11.764Z,95194.66
2023-05-14T12:17:39.258Z,95198.63
2023-05-14T12:20:09.852Z,95201.09
2023-05-14T12:22:37.357Z,95193.91
2023-05-14T12:25:05.268Z,95197.66
2023-05-14T12:27:32.592Z,95208.25
2023-05-14T12:30:13.094Z,95200.31
2023-05-14T12:32:49.135Z,95215.16
2023-05-14T12:35:16.625Z,95217.53
2023-05-14T12:37:43.891Z,95217.22
2023-05-14T12:40:11.872Z,95207.94
2023-05-14T12:42:38.964Z,95210.84
2023-05-14T12:45:07.722Z,95204.47
2023-05-14T12:47:35.516Z,95193.31
2023-05-14T12:50:04.896Z,95197.03
2023-05-14T12:55:02.211Z,95199.97
2023-05-14T12:57:29.383Z,95193.59
2023-05-14T12:59:57.821Z,95194.91
2023-05-14T13:02:24.901Z,95192.78
2023-05-14T13:04:52.088Z,95189.38
2023-05-14T13:07:20.867Z,95182.72
2023-05-14T13:09:49.044Z,95182.75
2023-05-14T13:12:16.208Z,95172.09
2023-05-14T13:14:43.383Z,95171.03
2023-05-14T13:17:10.575Z,95169.66
2023-05-14T13:19:37.725Z,95160.56
2023-05-14T13:22:05.269Z,95155.00
2023-05-14T13:24:34.397Z,95160.00
2023-05-14T13:27:01.905Z,95159.00
2023-05-14T13:29:29.041Z,95161.44
2023-05-14T13:31:56.176Z,95153.75
2023-05-14T13:34:23.494Z,95156.13
2023-05-14T13:36:50.805Z,95152.38
2023-05-14T13:39:18.003Z,95154.78
2023-05-14T13:41:46.611Z,95160.38
2023-05-14T13:44:13.804Z,95162.78
2023-05-14T13:46:41.122Z,95158.28
2023-05-14T13:49:08.383Z,95153.22
2023-05-14T13:51:35.444Z,95144.72
2023-05-14T13:54:04.396Z,95141.22
2023-05-14T13:56:31.562Z,95151.09
2023-05-14T13:59:00.190Z,95148.44
2023-05-14T14:01:27.633Z,95148.19
2023-05-14T14:03:54.968Z,95147.63
2023-05-14T14:06:22.125Z,95141.00
2023-05-14T14:08:49.422Z,95142.84
2023-05-14T14:11:16.485Z,95146.59
2023-05-14T14:13:45.856Z,95153.50
2023-05-14T14:16:15.398Z,95138.88
2023-05-14T14:18:42.675Z,95137.28
2023-05-14T14:21:10.302Z,95128.50
2023-05-14T14:23:37.460Z,95132.75
2023-05-14T14:26:04.770Z,95137.00
2023-05-14T14:28:32.873Z,95129.84
2023-05-14T14:31:00.164Z,95126.38
2023-05-14T14:33:28.917Z,95134.09
2023-05-14T14:35:55.985Z,95133.31
2023-05-14T14:38:23.229Z,95128.53
2023-05-14T14:40:50.704Z,95128.78
2023-05-14T14:43:17.923Z,95123.03
2023-05-14T14:45:46.823Z,95124.47
2023-05-14T14:48:26.449Z,95136.38
2023-05-14T14:50:55.564Z,95122.75
2023-05-14T14:53:23.390Z,95124.84
2023-05-14T14:55:51.348Z,95127.72
2023-05-14T14:58:20.343Z,95119.00
2023-05-14T15:00:48.333Z,95119.59
2023-05-14T15:03:16.082Z,95121.72
2023-05-14T15:05:43.366Z,95120.31
2023-05-14T15:08:12.228Z,95118.06
2023-05-14T15:10:39.568Z,95116.31
2023-05-14T15:13:07.187Z,95120.75
2023-05-14T15:15:35.668Z,95113.28
2023-05-14T15:18:03.831Z,95114.88
2023-05-14T15:20:31.051Z,95120.31
2023-05-14T15:22:58.375Z,95120.66
2023-05-14T15:25:27.837Z,95124.47
2023-05-14T15:27:55.232Z,95128.03
2023-05-14T15:30:22.385Z,95129.13
2023-05-14T15:32:50.164Z,95124.69
2023-05-14T15:35:17.331Z,95119.38
2023-05-14T15:37:45.397Z,95123.09
2023-05-14T15:40:13.145Z,95125.22
2023-05-14T15:42:43.232Z,95127.63
2023-05-14T15:45:12.465Z,95138.84
2023-05-14T15:47:40.544Z,95130.06
2023-05-14T15:50:08.809Z,95131.13
2023-05-14T15:52:36.263Z,95130.63
2023-05-14T15:55:05.346Z,95136.47
2023-05-14T15:57:32.527Z,95139.69
2023-05-14T16:00:01.349Z,95146.31
2023-05-14T16:02:28.567Z,95154.78
2023-05-14T16:04:55.728Z,95151.34
2023-05-14T16:07:23.083Z,95153.97
2023-05-14T16:09:50.326Z,95147.28
2023-05-14T16:12:17.524Z,95143.81
2023-05-14T16:14:44.605Z,95142.16
2023-05-14T16:17:13.163Z,95138.41
2023-05-14T16:19:40.364Z,95139.97
2023-05-14T16:22:07.526Z,95138.34
2023-05-14T16:24:34.704Z,95135.16
2023-05-14T16:27:01.922Z,95146.81
2023-05-14T16:29:29.136Z,95139.44
2023-05-14T16:31:56.373Z,95137.31
2023-05-14T16:34:25.156Z,95142.38
2023-05-14T16:36:52.443Z,95148.75
2023-05-14T16:39:19.828Z,95169.22
2023-05-14T16:41:47.096Z,95171.41
2023-05-14T16:44:14.386Z,95167.28
2023-05-14T16:46:42.901Z,95152.31
2023-05-14T16:49:10.238Z,95169.97
2023-05-14T16:51:39.054Z,95168.44
2023-05-14T16:54:06.304Z,95168.06
2023-05-14T16:56:33.739Z,95160.28
2023-05-14T16:59:00.835Z,95161.84
2023-05-14T17:01:28.463Z,95167.59
2023-05-14T17:03:56.081Z,95165.88
2023-05-14T17:06:23.271Z,95168.53
2023-05-14T17:08:52.033Z,95167.69
2023-05-14T17:11:19.199Z,95169.31
2023-05-14T17:13:46.370Z,95167.41
2023-05-14T17:16:13.636Z,95181.47
2023-05-14T17:18:40.900Z,95188.88
2023-05-14T17:21:08.109Z,95188.91
2023-05-14T17:23:35.190Z,95192.38
2023-05-14T17:26:03.906Z,95194.03
2023-05-14T17:28:31.250Z,95200.88
2023-05-14T17:30:58.356Z,95192.16
2023-05-14T17:33:25.705Z,95204.25
2023-05-14T17:35:52.965Z,95195.22
2023-05-14T17:38:20.267Z,95197.22
2023-05-14T17:40:47.348Z,95205.09
2023-05-14T17:43:16.078Z,95205.50
2023-05-14T17:45:54.003Z,95207.47
2023-05-14T17:48:22.352Z,95202.88
2023-05-14T17:50:49.619Z,95201.97
2023-05-14T17:53:16.778Z,95213.34
2023-05-14T17:55:44.316Z,95198.31
2023-05-14T17:58:12.000Z,95201.44
2023-05-14T18:00:40.845Z,95200.31
2023-05-14T18:03:08.467Z,95214.97
2023-05-14T18:05:36.008Z,95218.84
2023-05-14T18:08:03.295Z,95223.84
2023-05-14T18:10:30.513Z,95227.63
2023-05-14T18:12:57.755Z,95216.16
2023-05-14T18:15:25.120Z,95218.53
2023-05-14T18:17:54.774Z,95223.09
2023-05-14T18:20:21.968Z,95227.88
2023-05-14T18:22:49.453Z,95221.03
2023-05-14T18:25:16.815Z,95233.88
2023-05-14T18:27:44.264Z,95234.16
2023-05-14T18:30:13.430Z,95240.75
2023-05-14T18:32:41.425Z,95242.81
2023-05-14T18:35:10.630Z,95246.75
2023-05-14T18:37:38.553Z,95254.91
2023-05-14T18:40:07.369Z,95250.19
2023-05-14T18:42:35.138Z,95250.38
2023-05-14T18:45:02.313Z,95245.91
2023-05-14T18:47:30.470Z,95252.28
2023-05-14T18:49:58.135Z,95252.00
2023-05-14T18:52:26.767Z,95264.13
2023-05-14T18:54:54.533Z,95267.66
2023-05-14T18:57:22.283Z,95263.25
2023-05-14T18:59:49.806Z,95278.41
2023-05-14T19:02:17.495Z,95269.75
2023-05-14T19:04:52.374Z,95276.66
2023-05-14T19:07:21.045Z,95272.75
2023-05-14T19:09:49.907Z,95282.69
2023-05-14T19:12:17.075Z,95293.44
2023-05-14T19:14:44.291Z,95291.34
2023-05-14T19:17:11.831Z,95296.91
2023-05-14T19:19:39.051Z,95296.66
2023-05-14T19:22:06.327Z,95307.00
2023-05-14T19:24:33.558Z,95314.47
2023-05-14T19:27:02.123Z,95316.63
2023-05-14T19:29:29.403Z,95321.25
2023-05-14T19:31:56.579Z,95320.56
2023-05-14T19:34:23.972Z,95318.19
2023-05-14T19:36:51.216Z,95319.63
2023-05-14T19:39:18.403Z,95315.78
2023-05-14T19:41:45.568Z,95322.00
2023-05-14T19:44:14.239Z,95331.16
2023-05-14T19:46:41.447Z,95331.25
2023-05-14T19:49:08.687Z,95337.91
2023-05-14T19:51:35.984Z,95337.69
2023-05-14T19:54:03.505Z,95328.88
2023-05-14T19:56:31.066Z,95332.19
2023-05-14T19:58:58.508Z,95339.06
2023-05-14T20:01:27.547Z,95336.88
2023-05-14T20:03:54.718Z,95336.06
2023-05-14T20:06:21.867Z,95335.63
2023-05-14T20:08:49.007Z,95339.53
2023-05-14T20:11:16.108Z,95340.66
2023-05-14T20:13:43.273Z,95342.81
2023-05-14T20:16:10.617Z,95345.47
2023-05-14T20:18:39.233Z,95343.50
2023-05-14T20:21:06.451Z,95338.03
2023-05-14T20:23:33.605Z,95337.09
2023-05-14T20:26:00.762Z,95335.72
2023-05-14T20:28:27.870Z,95341.56
2023-05-14T20:30:55.056Z,95338.47
2023-05-14T20:33:22.307Z,95335.81
2023-05-14T20:35:51.070Z,95342.69
2023-05-14T20:38:18.354Z,95342.59
2023-05-14T20:40:45.532Z,95336.84
2023-05-14T20:43:12.787Z,95335.81
2023-05-14T20:45:39.987Z,95331.25
2023-05-14T20:48:07.657Z,95334.78
2023-05-14T20:50:35.588Z,95331.25
2023-05-14T20:53:04.672Z,95330.31
2023-05-14T20:55:31.911Z,95336.97
2023-05-14T20:57:59.060Z,95343.19
2023-05-14T21:00:26.424Z,95344.19
2023-05-14T21:02:53.705Z,95342.00
2023-05-14T21:05:21.207Z,95339.16
2023-05-14T21:07:48.388Z,95342.59
2023-05-14T21:10:17.019Z,95336.59
2023-05-14T21:12:44.897Z,95341.06
2023-05-14T21:15:12.650Z,95335.78
2023-05-14T21:17:39.904Z,95331.88
2023-05-14T21:20:08.707Z,95327.06
2023-05-14T21:22:35.915Z,95327.88
2023-05-14T21:25:03.227Z,95331.22
2023-05-14T21:27:31.933Z,95331.69
2023-05-14T21:29:59.186Z,95331.56
2023-05-14T21:32:26.308Z,95332.06
2023-05-14T21:34:53.466Z,95335.94
2023-05-14T21:37:21.489Z,95332.06
2023-05-14T21:39:48.582Z,95335.16
2023-05-14T21:42:15.763Z,95335.38
2023-05-14T21:44:44.410Z,95336.63
2023-05-14T21:47:11.661Z,95336.41
2023-05-14T21:49:38.818Z,95343.97
2023-05-14T21:52:06.403Z,95330.19
2023-05-14T21:54:33.764Z,95328.13
2023-05-14T21:57:01.102Z,95327.34
2023-05-14T21:59:28.592Z,95323.34
2023-05-14T22:04:28.870Z,95317.81
2023-05-14T22:06:56.459Z,95321.72
2023-05-14T22:09:23.625Z,95306.59
2023-05-14T22:11:50.861Z,95310.03
2023-05-14T22:14:17.987Z,95307.94
2023-05-14T22:16:45.220Z,95302.34
2023-05-14T22:19:15.694Z,95307.63
2023-05-14T22:21:42.972Z,95305.56
2023-05-14T22:24:10.043Z,95307.25
2023-05-14T22:26:37.187Z,95311.16
2023-05-14T22:29:04.427Z,95306.94
2023-05-14T22:31:31.675Z,95306.44
2023-05-14T22:33:58.943Z,95311.97
2023-05-14T22:36:27.568Z,95307.81
2023-05-14T22:38:54.766Z,95315.09
2023-05-14T22:41:22.046Z,95314.84
2023-05-14T22:43:49.202Z,95316.06
2023-05-14T22:46:16.562Z,95311.00
2023-05-14T22:48:43.823Z,95317.88
2023-05-14T22:51:11.841Z,95315.63
2023-05-14T22:53:40.767Z,95312.06
2023-05-14T22:56:08.164Z,95316.56
2023-05-14T22:58:35.346Z,95309.59
2023-05-14T23:01:02.480Z,95309.41
2023-05-14T23:03:29.712Z,95310.50
2023-05-14T23:05:57.020Z,95314.34
2023-05-14T23:08:24.110Z,95310.53
2023-05-14T23:10:52.852Z,95306.34
2023-05-14T23:13:20.229Z,95307.75
2023-05-14T23:15:47.422Z,95304.69
2023-05-14T23:18:14.715Z,95305.34
2023-05-14T23:20:42.108Z,95303.75
2023-05-14T23:23:09.151Z,95298.41
2023-05-14T23:25:36.597Z,95297.03
2023-05-14T23:28:05.134Z,95299.09
2023-05-14T23:30:32.226Z,95295.59
2023-05-14T23:32:59.471Z,95297.41
2023-05-14T23:35:26.985Z,95298.53
2023-05-14T23:37:54.297Z,95289.66
2023-05-14T23:40:21.532Z,95289.50
2023-05-14T23:42:48.596Z,95289.91
2023-05-14T23:45:17.318Z,95284.00
2023-05-14T23:47:44.784Z,95283.28
2023-05-14T23:50:12.014Z,95288.53
2023-05-14T23:52:39.032Z,95282.31
2023-05-14T23:55:07.003Z,95288.50
2023-05-14T23:57:34.316Z,95292.75
